»·PEaware :: N646CB KVNY-KSNA

N646CB :: KVNY-KSNA

FLIGHT INFORMATION

Flight Status: Arrived
Operator: Privately registered:
United States
More flights under this callsign
Pilot: Anonymous 26747 (26747)
Aircraft: CESSNA 172 SKYHAWK
(C172)
More flights by this aircraft type
Origin: KVNY Van Nuys
United States
Destination: KSNA John Wayne-Orange Co
United States
More flights between these airports :: More routes between these airports
Route: +ADAMM3 ADAMM V186 BAYJY V363 POXKU V8 SLI+
File this flight plan on PilotEdge
Remarks: BURP20
Altitude:
(Current/Filed)
5,000ft
Speed:
(Current/Filed)
95kts
Departed: 29-Nov-20 08:19 PM
Arrived: 29-Nov-20 09:00 PM
Distance/Time
Traveled:
45nm/0:41
Distance/Time
To Go:
Arrived

Flight Plot

Page will automatically refresh every two minutes.

Flight plan parsing failed; only flown route is shown


Map Options




Map Legend


Flown Route
Filed Route
Departure Airport
Arrival Airport
Navaid (VOR, NDB)
Fix

Horizontal Profiles

Position Reports

Time Latitude Longitude Heading Altitude Ground
Speed
29-Nov-20 19:56 34.210549 -118.487529 218 806ft 0kts
29-Nov-20 19:57 34.210549 -118.487528 218 806ft 0kts
29-Nov-20 19:58 34.210549 -118.487528 218 806ft 0kts
29-Nov-20 19:59 34.210548 -118.487529 191 806ft 0kts
29-Nov-20 20:00 34.210544 -118.487528 173 806ft 0kts
29-Nov-20 20:01 34.210544 -118.487528 173 806ft 0kts
29-Nov-20 20:02 34.210544 -118.487528 173 806ft 0kts
29-Nov-20 20:03 34.210544 -118.487528 173 806ft 0kts
29-Nov-20 20:04 34.210544 -118.487528 173 806ft 0kts
29-Nov-20 20:05 34.210544 -118.487528 173 806ft 0kts
29-Nov-20 20:06 34.210544 -118.487528 173 806ft 0kts
29-Nov-20 20:07 34.210544 -118.487528 173 806ft 0kts
29-Nov-20 20:08 34.210544 -118.487528 173 806ft 0kts
29-Nov-20 20:09 34.210252 -118.488004 281 806ft 0kts
29-Nov-20 20:10 34.212829 -118.488637 357 806ft 21kts
29-Nov-20 20:11 34.217185 -118.489318 351 806ft 17kts
29-Nov-20 20:12 34.218434 -118.489512 348 806ft 0kts
29-Nov-20 20:13 34.218434 -118.489512 348 806ft 0kts
29-Nov-20 20:14 34.218434 -118.489512 348 806ft 0kts
29-Nov-20 20:15 34.218434 -118.489512 348 806ft 0kts
29-Nov-20 20:16 34.218434 -118.489512 348 806ft 0kts
29-Nov-20 20:18 34.218434 -118.489512 348 806ft 0kts
29-Nov-20 20:19 34.215004 -118.489635 177 816ft 74kts
29-Nov-20 20:20 34.193419 -118.486019 174 1842ft 80kts
29-Nov-20 20:21 34.177114 -118.469610 124 2835ft 82kts
29-Nov-20 20:22 34.163674 -118.447056 124 3816ft 84kts
29-Nov-20 20:23 34.149876 -118.424289 124 4820ft 85kts
29-Nov-20 20:24 34.140079 -118.392915 92 4996ft 118kts
29-Nov-20 20:25 34.137585 -118.352576 92 4992ft 120kts
29-Nov-20 20:26 34.135007 -118.312136 92 4991ft 120kts
29-Nov-20 20:27 34.132453 -118.271931 92 4991ft 120kts
29-Nov-20 20:28 34.129988 -118.231804 92 4991ft 119kts
29-Nov-20 20:29 34.127627 -118.191787 92 4991ft 119kts
29-Nov-20 20:30 34.122040 -118.152596 115 4991ft 120kts
29-Nov-20 20:31 34.110048 -118.115150 108 4991ft 119kts
29-Nov-20 20:32 34.098897 -118.077484 108 4991ft 119kts
29-Nov-20 20:33 34.087641 -118.039912 108 4995ft 118kts
29-Nov-20 20:34 34.076389 -118.002573 108 4986ft 119kts
29-Nov-20 20:35 34.065005 -117.964872 108 4984ft 118kts
29-Nov-20 20:36 34.053679 -117.927536 108 4987ft 118kts
29-Nov-20 20:36 34.044254 -117.896503 108 4988ft 118kts
29-Nov-20 20:38 34.031061 -117.853124 108 4990ft 118kts
29-Nov-20 20:38 34.021591 -117.822026 108 4990ft 118kts
29-Nov-20 20:39 34.009780 -117.784933 125 4948ft 121kts
29-Nov-20 20:41 33.972320 -117.781051 181 4363ft 116kts
29-Nov-20 20:41 33.945799 -117.781520 173 3996ft 112kts
29-Nov-20 20:43 33.927463 -117.746262 111 3998ft 110kts
29-Nov-20 20:43 33.917439 -117.717678 111 4000ft 110kts
29-Nov-20 20:44 33.905493 -117.683545 111 4002ft 110kts
29-Nov-20 20:45 33.893541 -117.649368 111 4005ft 110kts
29-Nov-20 20:46 33.888971 -117.615378 40 4005ft 108kts
29-Nov-20 20:47 33.902295 -117.633236 235 4007ft 110kts
29-Nov-20 20:48 33.891125 -117.666914 261 4004ft 111kts
29-Nov-20 20:49 33.883092 -117.701678 228 3792ft 106kts
29-Nov-20 20:50 33.862789 -117.727017 226 3289ft 105kts
29-Nov-20 20:51 33.842870 -117.751728 226 3001ft 101kts
29-Nov-20 20:52 33.822438 -117.773965 213 2846ft 96kts
29-Nov-20 20:53 33.798435 -117.790762 208 2439ft 106kts
29-Nov-20 20:54 33.773912 -117.806870 201 2147ft 85kts
29-Nov-20 20:55 33.752168 -117.819929 208 1727ft 87kts
29-Nov-20 20:56 33.730343 -117.834258 207 1180ft 91kts
29-Nov-20 20:57 33.707845 -117.848415 205 673ft 92kts
29-Nov-20 20:58 33.685820 -117.862321 210 187ft 81kts
29-Nov-20 20:59 33.677326 -117.866631 116 60ft 0kts

Navigation Log

Ident Type
Flight plan parsing failed, navigation log unavailable